sensor_id;sensor_type;location;lat;lon;timestamp;P1;durP1;ratioP1;P2;durP2;ratioP2
46288;SDS011;63105;46.158;14.604;2023-01-16T00:00:15;3.13;;;1.10;;
46288;SDS011;63105;46.158;14.604;2023-01-16T00:02:40;1.10;;;0.40;;
46288;SDS011;63105;46.158;14.604;2023-01-16T00:05:06;1.75;;;0.30;;
46288;SDS011;63105;46.158;14.604;2023-01-16T00:07:31;0.20;;;0.10;;
46288;SDS011;63105;46.158;14.604;2023-01-16T00:09:56;2.78;;;0.50;;
46288;SDS011;63105;46.158;14.604;2023-01-16T00:12:21;3.80;;;1.20;;
46288;SDS011;63105;46.158;14.604;2023-01-16T00:14:46;3.45;;;1.58;;
46288;SDS011;63105;46.158;14.604;2023-01-16T00:17:12;1.53;;;0.70;;
46288;SDS011;63105;46.158;14.604;2023-01-16T00:19:37;1.17;;;0.30;;
46288;SDS011;63105;46.158;14.604;2023-01-16T00:22:02;2.03;;;0.65;;
46288;SDS011;63105;46.158;14.604;2023-01-16T00:24:27;5.15;;;1.00;;
46288;SDS011;63105;46.158;14.604;2023-01-16T00:26:53;3.38;;;1.40;;
46288;SDS011;63105;46.158;14.604;2023-01-16T00:29:18;2.53;;;1.00;;
46288;SDS011;63105;46.158;14.604;2023-01-16T00:31:43;1.45;;;0.40;;
46288;SDS011;63105;46.158;14.604;2023-01-16T00:34:08;1.25;;;0.40;;
46288;SDS011;63105;46.158;14.604;2023-01-16T00:36:33;1.50;;;0.52;;
46288;SDS011;63105;46.158;14.604;2023-01-16T00:38:59;3.08;;;0.50;;
46288;SDS011;63105;46.158;14.604;2023-01-16T00:41:24;1.70;;;0.57;;
46288;SDS011;63105;46.158;14.604;2023-01-16T00:43:49;0.68;;;0.25;;
46288;SDS011;63105;46.158;14.604;2023-01-16T00:46:15;4.13;;;1.50;;
46288;SDS011;63105;46.158;14.604;2023-01-16T00:48:40;0.30;;;0.30;;
46288;SDS011;63105;46.158;14.604;2023-01-16T00:51:05;2.15;;;0.20;;
46288;SDS011;63105;46.158;14.604;2023-01-16T00:53:31;1.13;;;0.45;;
46288;SDS011;63105;46.158;14.604;2023-01-16T00:55:56;1.55;;;0.60;;
46288;SDS011;63105;46.158;14.604;2023-01-16T00:58:21;1.55;;;0.60;;
46288;SDS011;63105;46.158;14.604;2023-01-16T01:00:46;0.93;;;0.35;;
46288;SDS011;63105;46.158;14.604;2023-01-16T01:03:11;0.50;;;0.20;;
46288;SDS011;63105;46.158;14.604;2023-01-16T01:05:37;0.93;;;0.30;;
46288;SDS011;63105;46.158;14.604;2023-01-16T01:08:03;0.43;;;0.10;;
46288;SDS011;63105;46.158;14.604;2023-01-16T01:10:28;1.73;;;0.30;;
46288;SDS011;63105;46.158;14.604;2023-01-16T01:12:54;1.23;;;0.17;;
46288;SDS011;63105;46.158;14.604;2023-01-16T01:15:20;2.30;;;0.70;;
46288;SDS011;63105;46.158;14.604;2023-01-16T01:17:45;0.40;;;0.10;;
46288;SDS011;63105;46.158;14.604;2023-01-16T01:20:10;0.82;;;0.20;;
46288;SDS011;63105;46.158;14.604;2023-01-16T01:22:35;3.67;;;2.00;;
46288;SDS011;63105;46.158;14.604;2023-01-16T01:25:00;3.78;;;1.30;;
46288;SDS011;63105;46.158;14.604;2023-01-16T01:27:26;2.40;;;0.52;;
46288;SDS011;63105;46.158;14.604;2023-01-16T01:29:51;1.65;;;0.55;;
46288;SDS011;63105;46.158;14.604;2023-01-16T01:32:17;2.30;;;0.50;;
46288;SDS011;63105;46.158;14.604;2023-01-16T01:34:42;0.88;;;0.30;;
46288;SDS011;63105;46.158;14.604;2023-01-16T01:37:07;5.05;;;3.78;;
46288;SDS011;63105;46.158;14.604;2023-01-16T01:39:33;1.63;;;0.75;;
46288;SDS011;63105;46.158;14.604;2023-01-16T01:41:58;1.92;;;0.70;;
46288;SDS011;63105;46.158;14.604;2023-01-16T01:47:11;0.77;;;0.40;;
46288;SDS011;63105;46.158;14.604;2023-01-16T01:49:36;0.65;;;0.30;;
46288;SDS011;63105;46.158;14.604;2023-01-16T01:52:02;0.52;;;0.30;;
46288;SDS011;63105;46.158;14.604;2023-01-16T01:54:29;0.70;;;0.35;;
46288;SDS011;63105;46.158;14.604;2023-01-16T01:57:05;0.45;;;0.38;;
46288;SDS011;63105;46.158;14.604;2023-01-16T01:59:37;0.30;;;0.30;;
46288;SDS011;63105;46.158;14.604;2023-01-16T02:02:04;0.88;;;0.50;;
46288;SDS011;63105;46.158;14.604;2023-01-16T02:04:32;0.85;;;0.40;;
46288;SDS011;63105;46.158;14.604;2023-01-16T02:07:03;0.30;;;0.28;;
46288;SDS011;63105;46.158;14.604;2023-01-16T02:09:29;0.98;;;0.35;;
46288;SDS011;63105;46.158;14.604;2023-01-16T02:11:56;1.63;;;0.43;;
46288;SDS011;63105;46.158;14.604;2023-01-16T02:14:22;1.58;;;0.40;;
46288;SDS011;63105;46.158;14.604;2023-01-16T02:16:49;1.15;;;0.50;;
46288;SDS011;63105;46.158;14.604;2023-01-16T02:19:54;0.65;;;0.30;;
46288;SDS011;63105;46.158;14.604;2023-01-16T02:37:54;1.20;;;0.50;;
46288;SDS011;63105;46.158;14.604;2023-01-16T02:42:48;0.93;;;0.30;;
46288;SDS011;63105;46.158;14.604;2023-01-16T02:45:19;1.02;;;0.40;;
46288;SDS011;63105;46.158;14.604;2023-01-16T02:48:05;0.52;;;0.30;;
46288;SDS011;63105;46.158;14.604;2023-01-16T02:50:35;1.13;;;0.30;;
46288;SDS011;63105;46.158;14.604;2023-01-16T02:55:45;0.55;;;0.35;;
46288;SDS011;63105;46.158;14.604;2023-01-16T02:58:12;1.50;;;0.50;;
46288;SDS011;63105;46.158;14.604;2023-01-16T03:00:37;1.20;;;0.43;;
46288;SDS011;63105;46.158;14.604;2023-01-16T03:05:58;0.90;;;0.40;;
46288;SDS011;63105;46.158;14.604;2023-01-16T03:08:51;1.38;;;0.40;;
46288;SDS011;63105;46.158;14.604;2023-01-16T03:11:15;0.75;;;0.40;;
46288;SDS011;63105;46.158;14.604;2023-01-16T03:13:55;0.65;;;0.30;;
46288;SDS011;63105;46.158;14.604;2023-01-16T03:16:28;0.65;;;0.30;;
46288;SDS011;63105;46.158;14.604;2023-01-16T03:21:30;1.05;;;0.40;;
46288;SDS011;63105;46.158;14.604;2023-01-16T03:24:03;0.60;;;0.35;;
46288;SDS011;63105;46.158;14.604;2023-01-16T03:26:38;0.60;;;0.30;;
46288;SDS011;63105;46.158;14.604;2023-01-16T03:29:54;0.68;;;0.30;;
46288;SDS011;63105;46.158;14.604;2023-01-16T03:34:28;1.23;;;0.50;;
46288;SDS011;63105;46.158;14.604;2023-01-16T03:39:40;1.45;;;0.50;;
46288;SDS011;63105;46.158;14.604;2023-01-16T03:42:10;1.20;;;0.50;;
46288;SDS011;63105;46.158;14.604;2023-01-16T03:44:37;1.92;;;0.70;;
46288;SDS011;63105;46.158;14.604;2023-01-16T03:47:04;2.15;;;0.70;;
46288;SDS011;63105;46.158;14.604;2023-01-16T03:49:31;1.52;;;0.50;;
46288;SDS011;63105;46.158;14.604;2023-01-16T03:51:59;1.48;;;0.50;;
46288;SDS011;63105;46.158;14.604;2023-01-16T03:54:36;1.35;;;0.60;;
46288;SDS011;63105;46.158;14.604;2023-01-16T03:57:10;2.45;;;0.80;;
46288;SDS011;63105;46.158;14.604;2023-01-16T03:59:37;1.58;;;0.65;;
46288;SDS011;63105;46.158;14.604;2023-01-16T04:02:19;2.22;;;0.82;;
46288;SDS011;63105;46.158;14.604;2023-01-16T04:04:58;2.08;;;0.88;;
46288;SDS011;63105;46.158;14.604;2023-01-16T04:07:35;1.63;;;0.60;;
46288;SDS011;63105;46.158;14.604;2023-01-16T04:10:03;1.65;;;0.70;;
46288;SDS011;63105;46.158;14.604;2023-01-16T04:12:32;1.60;;;0.70;;
46288;SDS011;63105;46.158;14.604;2023-01-16T04:15:03;1.88;;;0.85;;
46288;SDS011;63105;46.158;14.604;2023-01-16T04:17:29;1.90;;;0.77;;
46288;SDS011;63105;46.158;14.604;2023-01-16T04:19:54;2.30;;;0.80;;
46288;SDS011;63105;46.158;14.604;2023-01-16T04:22:24;1.85;;;0.80;;
46288;SDS011;63105;46.158;14.604;2023-01-16T04:24:50;1.88;;;0.75;;
46288;SDS011;63105;46.158;14.604;2023-01-16T04:27:16;2.08;;;0.80;;
46288;SDS011;63105;46.158;14.604;2023-01-16T04:29:41;2.15;;;0.80;;
46288;SDS011;63105;46.158;14.604;2023-01-16T04:32:07;1.55;;;0.60;;
46288;SDS011;63105;46.158;14.604;2023-01-16T04:34:32;2.70;;;0.90;;
46288;SDS011;63105;46.158;14.604;2023-01-16T04:36:57;2.63;;;1.10;;
46288;SDS011;63105;46.158;14.604;2023-01-16T04:39:22;2.65;;;1.00;;
46288;SDS011;63105;46.158;14.604;2023-01-16T04:41:48;3.80;;;1.20;;
46288;SDS011;63105;46.158;14.604;2023-01-16T04:44:15;2.20;;;0.90;;
46288;SDS011;63105;46.158;14.604;2023-01-16T04:46:41;2.83;;;1.10;;
46288;SDS011;63105;46.158;14.604;2023-01-16T04:49:06;4.78;;;1.90;;
46288;SDS011;63105;46.158;14.604;2023-01-16T04:51:31;5.18;;;2.10;;
46288;SDS011;63105;46.158;14.604;2023-01-16T04:53:57;5.07;;;2.08;;
46288;SDS011;63105;46.158;14.604;2023-01-16T04:56:22;5.03;;;2.08;;
46288;SDS011;63105;46.158;14.604;2023-01-16T04:58:47;5.18;;;2.20;;
46288;SDS011;63105;46.158;14.604;2023-01-16T05:01:14;4.90;;;2.25;;
46288;SDS011;63105;46.158;14.604;2023-01-16T05:03:39;5.15;;;2.53;;
46288;SDS011;63105;46.158;14.604;2023-01-16T05:06:05;4.60;;;2.22;;
46288;SDS011;63105;46.158;14.604;2023-01-16T05:08:30;4.65;;;2.30;;
46288;SDS011;63105;46.158;14.604;2023-01-16T05:10:55;4.82;;;2.03;;
46288;SDS011;63105;46.158;14.604;2023-01-16T05:13:21;5.10;;;2.35;;
46288;SDS011;63105;46.158;14.604;2023-01-16T05:15:46;5.03;;;2.28;;
46288;SDS011;63105;46.158;14.604;2023-01-16T05:18:12;6.55;;;2.47;;
46288;SDS011;63105;46.158;14.604;2023-01-16T05:20:38;6.03;;;2.85;;
46288;SDS011;63105;46.158;14.604;2023-01-16T05:23:03;6.18;;;2.80;;
46288;SDS011;63105;46.158;14.604;2023-01-16T05:25:29;5.93;;;2.58;;
46288;SDS011;63105;46.158;14.604;2023-01-16T05:27:54;5.03;;;2.45;;
46288;SDS011;63105;46.158;14.604;2023-01-16T05:30:19;4.50;;;2.53;;
46288;SDS011;63105;46.158;14.604;2023-01-16T05:32:44;5.03;;;2.60;;
46288;SDS011;63105;46.158;14.604;2023-01-16T05:35:10;5.38;;;2.60;;
46288;SDS011;63105;46.158;14.604;2023-01-16T05:37:35;4.63;;;2.35;;
46288;SDS011;63105;46.158;14.604;2023-01-16T05:40:00;5.05;;;2.67;;
46288;SDS011;63105;46.158;14.604;2023-01-16T05:42:26;5.80;;;3.08;;
46288;SDS011;63105;46.158;14.604;2023-01-16T05:44:51;5.63;;;3.28;;
46288;SDS011;63105;46.158;14.604;2023-01-16T05:47:19;6.18;;;3.10;;
46288;SDS011;63105;46.158;14.604;2023-01-16T05:49:45;6.30;;;3.53;;
46288;SDS011;63105;46.158;14.604;2023-01-16T05:52:10;7.22;;;3.67;;
46288;SDS011;63105;46.158;14.604;2023-01-16T05:54:36;6.63;;;4.18;;
46288;SDS011;63105;46.158;14.604;2023-01-16T05:57:01;7.20;;;4.75;;
46288;SDS011;63105;46.158;14.604;2023-01-16T05:59:26;8.15;;;4.90;;
46288;SDS011;63105;46.158;14.604;2023-01-16T06:01:51;8.13;;;4.80;;
46288;SDS011;63105;46.158;14.604;2023-01-16T06:04:16;7.18;;;4.72;;
46288;SDS011;63105;46.158;14.604;2023-01-16T06:06:44;8.10;;;4.60;;
46288;SDS011;63105;46.158;14.604;2023-01-16T06:09:09;6.57;;;4.70;;
46288;SDS011;63105;46.158;14.604;2023-01-16T06:11:34;7.00;;;4.50;;
46288;SDS011;63105;46.158;14.604;2023-01-16T06:13:59;6.93;;;4.43;;
46288;SDS011;63105;46.158;14.604;2023-01-16T06:16:28;7.50;;;4.55;;
46288;SDS011;63105;46.158;14.604;2023-01-16T06:18:53;6.78;;;4.53;;
46288;SDS011;63105;46.158;14.604;2023-01-16T06:21:18;6.93;;;4.20;;
46288;SDS011;63105;46.158;14.604;2023-01-16T06:23:44;6.88;;;3.67;;
46288;SDS011;63105;46.158;14.604;2023-01-16T06:26:09;5.63;;;3.33;;
46288;SDS011;63105;46.158;14.604;2023-01-16T06:28:35;7.00;;;3.20;;
46288;SDS011;63105;46.158;14.604;2023-01-16T06:31:00;6.85;;;3.42;;
46288;SDS011;63105;46.158;14.604;2023-01-16T06:33:25;5.25;;;3.05;;
46288;SDS011;63105;46.158;14.604;2023-01-16T06:35:51;4.88;;;2.95;;
46288;SDS011;63105;46.158;14.604;2023-01-16T06:38:16;5.93;;;3.28;;
46288;SDS011;63105;46.158;14.604;2023-01-16T06:40:41;5.63;;;3.05;;
46288;SDS011;63105;46.158;14.604;2023-01-16T06:43:09;5.80;;;3.38;;
46288;SDS011;63105;46.158;14.604;2023-01-16T06:45:34;6.90;;;2.95;;
46288;SDS011;63105;46.158;14.604;2023-01-16T06:47:59;6.55;;;3.40;;
46288;SDS011;63105;46.158;14.604;2023-01-16T06:50:25;5.75;;;3.40;;
46288;SDS011;63105;46.158;14.604;2023-01-16T06:52:50;6.90;;;3.67;;
46288;SDS011;63105;46.158;14.604;2023-01-16T06:55:15;7.05;;;4.13;;
46288;SDS011;63105;46.158;14.604;2023-01-16T06:57:40;8.02;;;4.78;;
46288;SDS011;63105;46.158;14.604;2023-01-16T07:00:06;8.50;;;4.63;;
46288;SDS011;63105;46.158;14.604;2023-01-16T07:02:31;7.85;;;4.75;;
46288;SDS011;63105;46.158;14.604;2023-01-16T07:04:57;7.18;;;4.22;;
46288;SDS011;63105;46.158;14.604;2023-01-16T07:07:22;13.50;;;7.22;;
46288;SDS011;63105;46.158;14.604;2023-01-16T07:09:47;11.60;;;6.72;;
46288;SDS011;63105;46.158;14.604;2023-01-16T07:12:12;9.10;;;5.63;;
46288;SDS011;63105;46.158;14.604;2023-01-16T07:14:37;9.48;;;5.53;;
46288;SDS011;63105;46.158;14.604;2023-01-16T07:17:21;9.57;;;6.07;;
46288;SDS011;63105;46.158;14.604;2023-01-16T07:20:06;12.25;;;7.68;;
46288;SDS011;63105;46.158;14.604;2023-01-16T07:22:50;9.80;;;6.47;;
46288;SDS011;63105;46.158;14.604;2023-01-16T07:25:16;10.77;;;6.55;;
46288;SDS011;63105;46.158;14.604;2023-01-16T07:27:42;10.30;;;6.45;;
46288;SDS011;63105;46.158;14.604;2023-01-16T07:30:08;11.30;;;6.72;;
46288;SDS011;63105;46.158;14.604;2023-01-16T07:32:34;10.88;;;7.03;;
46288;SDS011;63105;46.158;14.604;2023-01-16T07:34:59;11.35;;;6.95;;
46288;SDS011;63105;46.158;14.604;2023-01-16T07:37:24;11.02;;;6.82;;
46288;SDS011;63105;46.158;14.604;2023-01-16T07:39:49;10.13;;;6.72;;
46288;SDS011;63105;46.158;14.604;2023-01-16T07:42:15;11.90;;;7.28;;
46288;SDS011;63105;46.158;14.604;2023-01-16T07:44:40;14.05;;;8.32;;
46288;SDS011;63105;46.158;14.604;2023-01-16T07:47:05;12.98;;;7.60;;
46288;SDS011;63105;46.158;14.604;2023-01-16T07:49:30;11.68;;;7.00;;
46288;SDS011;63105;46.158;14.604;2023-01-16T07:51:56;11.93;;;7.80;;
46288;SDS011;63105;46.158;14.604;2023-01-16T07:54:21;11.32;;;7.20;;
46288;SDS011;63105;46.158;14.604;2023-01-16T07:56:47;11.35;;;6.95;;
46288;SDS011;63105;46.158;14.604;2023-01-16T07:59:12;11.45;;;7.45;;
46288;SDS011;63105;46.158;14.604;2023-01-16T08:01:38;12.43;;;7.85;;
46288;SDS011;63105;46.158;14.604;2023-01-16T08:04:04;11.43;;;6.90;;
46288;SDS011;63105;46.158;14.604;2023-01-16T08:06:29;12.98;;;8.23;;
46288;SDS011;63105;46.158;14.604;2023-01-16T08:08:54;14.45;;;8.13;;
46288;SDS011;63105;46.158;14.604;2023-01-16T08:11:20;13.25;;;8.30;;
46288;SDS011;63105;46.158;14.604;2023-01-16T08:14:04;14.13;;;8.75;;
46288;SDS011;63105;46.158;14.604;2023-01-16T08:16:29;14.70;;;8.45;;
46288;SDS011;63105;46.158;14.604;2023-01-16T08:18:54;12.95;;;8.80;;
46288;SDS011;63105;46.158;14.604;2023-01-16T08:21:20;16.15;;;9.68;;
46288;SDS011;63105;46.158;14.604;2023-01-16T08:23:45;16.67;;;10.25;;
46288;SDS011;63105;46.158;14.604;2023-01-16T08:26:11;16.63;;;9.70;;
46288;SDS011;63105;46.158;14.604;2023-01-16T08:28:36;15.70;;;9.85;;
46288;SDS011;63105;46.158;14.604;2023-01-16T08:31:11;14.88;;;9.40;;
46288;SDS011;63105;46.158;14.604;2023-01-16T08:33:41;16.38;;;9.80;;
46288;SDS011;63105;46.158;14.604;2023-01-16T08:36:07;15.68;;;9.65;;
46288;SDS011;63105;46.158;14.604;2023-01-16T08:38:33;16.02;;;9.43;;
46288;SDS011;63105;46.158;14.604;2023-01-16T08:40:58;16.45;;;10.02;;
46288;SDS011;63105;46.158;14.604;2023-01-16T08:43:24;15.65;;;9.75;;
46288;SDS011;63105;46.158;14.604;2023-01-16T08:46:16;17.63;;;10.98;;
46288;SDS011;63105;46.158;14.604;2023-01-16T08:49:01;16.83;;;10.40;;
46288;SDS011;63105;46.158;14.604;2023-01-16T08:51:45;16.40;;;10.48;;
46288;SDS011;63105;46.158;14.604;2023-01-16T08:54:10;17.20;;;10.52;;
46288;SDS011;63105;46.158;14.604;2023-01-16T08:56:35;16.88;;;10.63;;
46288;SDS011;63105;46.158;14.604;2023-01-16T08:59:05;16.95;;;10.85;;
46288;SDS011;63105;46.158;14.604;2023-01-16T09:01:30;17.92;;;11.25;;
46288;SDS011;63105;46.158;14.604;2023-01-16T09:03:55;22.40;;;13.98;;
46288;SDS011;63105;46.158;14.604;2023-01-16T09:06:21;24.95;;;15.45;;
46288;SDS011;63105;46.158;14.604;2023-01-16T09:08:46;29.40;;;17.35;;
46288;SDS011;63105;46.158;14.604;2023-01-16T09:11:11;27.48;;;17.38;;
46288;SDS011;63105;46.158;14.604;2023-01-16T09:13:55;22.27;;;14.82;;
46288;SDS011;63105;46.158;14.604;2023-01-16T09:16:25;24.45;;;16.65;;
46288;SDS011;63105;46.158;14.604;2023-01-16T09:18:50;24.70;;;17.10;;
46288;SDS011;63105;46.158;14.604;2023-01-16T09:21:16;23.80;;;15.07;;
46288;SDS011;63105;46.158;14.604;2023-01-16T09:23:43;24.42;;;15.43;;
46288;SDS011;63105;46.158;14.604;2023-01-16T09:26:08;23.83;;;15.75;;
46288;SDS011;63105;46.158;14.604;2023-01-16T09:28:34;22.35;;;14.15;;
46288;SDS011;63105;46.158;14.604;2023-01-16T09:30:59;24.80;;;15.02;;
46288;SDS011;63105;46.158;14.604;2023-01-16T09:33:24;22.08;;;14.52;;
46288;SDS011;63105;46.158;14.604;2023-01-16T09:35:49;23.23;;;14.70;;
46288;SDS011;63105;46.158;14.604;2023-01-16T09:38:14;21.38;;;14.60;;
46288;SDS011;63105;46.158;14.604;2023-01-16T09:40:43;23.58;;;14.45;;
46288;SDS011;63105;46.158;14.604;2023-01-16T09:46:01;19.85;;;13.18;;
46288;SDS011;63105;46.158;14.604;2023-01-16T09:48:28;23.67;;;15.35;;
46288;SDS011;63105;46.158;14.604;2023-01-16T09:50:55;29.23;;;17.75;;
46288;SDS011;63105;46.158;14.604;2023-01-16T09:56:18;34.22;;;20.77;;
46288;SDS011;63105;46.158;14.604;2023-01-16T09:59:13;35.33;;;22.20;;
46288;SDS011;63105;46.158;14.604;2023-01-16T10:01:42;30.90;;;21.13;;
46288;SDS011;63105;46.158;14.604;2023-01-16T10:04:17;32.33;;;20.80;;
46288;SDS011;63105;46.158;14.604;2023-01-16T10:06:52;30.60;;;19.75;;
46288;SDS011;63105;46.158;14.604;2023-01-16T10:09:30;31.65;;;20.10;;
46288;SDS011;63105;46.158;14.604;2023-01-16T10:11:58;30.17;;;20.33;;
46288;SDS011;63105;46.158;14.604;2023-01-16T10:24:19;31.30;;;19.80;;
46288;SDS011;63105;46.158;14.604;2023-01-16T10:26:58;29.05;;;19.42;;
46288;SDS011;63105;46.158;14.604;2023-01-16T10:32:23;28.20;;;18.83;;
46288;SDS011;63105;46.158;14.604;2023-01-16T10:34:59;28.40;;;18.60;;
46288;SDS011;63105;46.158;14.604;2023-01-16T10:37:28;37.20;;;23.13;;
46288;SDS011;63105;46.158;14.604;2023-01-16T10:39:53;45.05;;;26.60;;
46288;SDS011;63105;46.158;14.604;2023-01-16T10:42:23;35.95;;;22.60;;
46288;SDS011;63105;46.158;14.604;2023-01-16T10:45:15;33.42;;;20.48;;
46288;SDS011;63105;46.158;14.604;2023-01-16T10:48:01;34.70;;;21.63;;
46288;SDS011;63105;46.158;14.604;2023-01-16T10:50:45;32.38;;;20.23;;
46288;SDS011;63105;46.158;14.604;2023-01-16T10:53:10;29.73;;;19.13;;
46288;SDS011;63105;46.158;14.604;2023-01-16T10:55:38;34.80;;;21.58;;
46288;SDS011;63105;46.158;14.604;2023-01-16T10:58:05;32.40;;;20.30;;
46288;SDS011;63105;46.158;14.604;2023-01-16T11:00:35;31.77;;;20.73;;
46288;SDS011;63105;46.158;14.604;2023-01-16T11:03:09;31.67;;;20.13;;
46288;SDS011;63105;46.158;14.604;2023-01-16T11:05:35;33.15;;;19.98;;
46288;SDS011;63105;46.158;14.604;2023-01-16T11:08:04;31.77;;;20.10;;
46288;SDS011;63105;46.158;14.604;2023-01-16T11:10:29;30.65;;;20.27;;
46288;SDS011;63105;46.158;14.604;2023-01-16T11:12:54;31.45;;;19.08;;
46288;SDS011;63105;46.158;14.604;2023-01-16T11:15:39;31.25;;;19.25;;
46288;SDS011;63105;46.158;14.604;2023-01-16T11:18:31;30.50;;;18.92;;
46288;SDS011;63105;46.158;14.604;2023-01-16T11:20:58;31.20;;;19.00;;
46288;SDS011;63105;46.158;14.604;2023-01-16T11:23:33;30.13;;;18.77;;
46288;SDS011;63105;46.158;14.604;2023-01-16T11:26:00;30.48;;;18.58;;
46288;SDS011;63105;46.158;14.604;2023-01-16T11:28:26;29.35;;;18.65;;
46288;SDS011;63105;46.158;14.604;2023-01-16T11:30:53;29.50;;;19.52;;
46288;SDS011;63105;46.158;14.604;2023-01-16T11:33:41;28.83;;;18.23;;
46288;SDS011;63105;46.158;14.604;2023-01-16T11:36:06;29.83;;;19.13;;
46288;SDS011;63105;46.158;14.604;2023-01-16T11:38:32;25.77;;;17.38;;
46288;SDS011;63105;46.158;14.604;2023-01-16T11:40:59;21.85;;;14.23;;
46288;SDS011;63105;46.158;14.604;2023-01-16T11:43:25;20.63;;;14.07;;
46288;SDS011;63105;46.158;14.604;2023-01-16T11:46:20;24.58;;;16.35;;
46288;SDS011;63105;46.158;14.604;2023-01-16T11:48:51;23.95;;;15.73;;
46288;SDS011;63105;46.158;14.604;2023-01-16T11:51:18;23.92;;;15.32;;
46288;SDS011;63105;46.158;14.604;2023-01-16T11:53:44;22.08;;;14.85;;
46288;SDS011;63105;46.158;14.604;2023-01-16T12:04:21;20.73;;;14.70;;
46288;SDS011;63105;46.158;14.604;2023-01-16T12:06:51;19.60;;;13.77;;
46288;SDS011;63105;46.158;14.604;2023-01-16T12:12:10;20.00;;;12.70;;
46288;SDS011;63105;46.158;14.604;2023-01-16T12:15:12;17.90;;;12.48;;
46288;SDS011;63105;46.158;14.604;2023-01-16T12:22:48;24.10;;;15.38;;
46288;SDS011;63105;46.158;14.604;2023-01-16T12:30:18;20.45;;;13.70;;
46288;SDS011;63105;46.158;14.604;2023-01-16T12:32:52;19.33;;;13.93;;
46288;SDS011;63105;46.158;14.604;2023-01-16T12:38:04;21.83;;;14.55;;
46288;SDS011;63105;46.158;14.604;2023-01-16T12:40:45;22.00;;;14.82;;
46288;SDS011;63105;46.158;14.604;2023-01-16T12:50:58;24.73;;;16.75;;
46288;SDS011;63105;46.158;14.604;2023-01-16T12:55:58;25.85;;;17.75;;
46288;SDS011;63105;46.158;14.604;2023-01-16T12:58:27;23.17;;;15.70;;
46288;SDS011;63105;46.158;14.604;2023-01-16T13:01:08;27.52;;;17.60;;
46288;SDS011;63105;46.158;14.604;2023-01-16T13:03:44;23.02;;;15.98;;
46288;SDS011;63105;46.158;14.604;2023-01-16T13:06:13;26.35;;;17.63;;
46288;SDS011;63105;46.158;14.604;2023-01-16T13:11:07;26.73;;;17.43;;
46288;SDS011;63105;46.158;14.604;2023-01-16T13:14:03;24.77;;;17.30;;
46288;SDS011;63105;46.158;14.604;2023-01-16T13:16:33;29.40;;;19.02;;
46288;SDS011;63105;46.158;14.604;2023-01-16T13:19:03;26.23;;;17.25;;
46288;SDS011;63105;46.158;14.604;2023-01-16T13:21:32;27.90;;;17.45;;
46288;SDS011;63105;46.158;14.604;2023-01-16T13:26:24;25.30;;;16.95;;
46288;SDS011;63105;46.158;14.604;2023-01-16T13:28:52;24.90;;;16.65;;
46288;SDS011;63105;46.158;14.604;2023-01-16T13:31:42;24.85;;;16.38;;
46288;SDS011;63105;46.158;14.604;2023-01-16T13:34:19;24.58;;;16.48;;
46288;SDS011;63105;46.158;14.604;2023-01-16T13:37:02;26.20;;;17.80;;
46288;SDS011;63105;46.158;14.604;2023-01-16T13:41:56;24.70;;;16.30;;
46288;SDS011;63105;46.158;14.604;2023-01-16T13:44:25;30.02;;;22.10;;
46288;SDS011;63105;46.158;14.604;2023-01-16T13:47:12;23.73;;;15.90;;
46288;SDS011;63105;46.158;14.604;2023-01-16T13:49:39;25.02;;;16.73;;
46288;SDS011;63105;46.158;14.604;2023-01-16T13:52:11;23.58;;;15.75;;
46288;SDS011;63105;46.158;14.604;2023-01-16T13:54:41;23.77;;;16.15;;
46288;SDS011;63105;46.158;14.604;2023-01-16T13:57:17;23.08;;;15.93;;
46288;SDS011;63105;46.158;14.604;2023-01-16T13:59:48;25.10;;;17.60;;
46288;SDS011;63105;46.158;14.604;2023-01-16T14:07:51;24.13;;;16.55;;
46288;SDS011;63105;46.158;14.604;2023-01-16T14:13:25;22.05;;;15.32;;
46288;SDS011;63105;46.158;14.604;2023-01-16T14:16:39;21.17;;;15.18;;
46288;SDS011;63105;46.158;14.604;2023-01-16T14:18:59;22.33;;;15.00;;
46288;SDS011;63105;46.158;14.604;2023-01-16T14:23:53;23.45;;;16.48;;
46288;SDS011;63105;46.158;14.604;2023-01-16T14:34:01;21.97;;;14.07;;
46288;SDS011;63105;46.158;14.604;2023-01-16T14:36:27;20.25;;;13.55;;
46288;SDS011;63105;46.158;14.604;2023-01-16T14:38:53;20.52;;;13.35;;
46288;SDS011;63105;46.158;14.604;2023-01-16T14:41:20;19.45;;;13.43;;
46288;SDS011;63105;46.158;14.604;2023-01-16T14:46:52;19.70;;;13.52;;
46288;SDS011;63105;46.158;14.604;2023-01-16T14:49:44;20.90;;;13.90;;
46288;SDS011;63105;46.158;14.604;2023-01-16T14:55:25;18.67;;;12.93;;
46288;SDS011;63105;46.158;14.604;2023-01-16T14:57:51;19.95;;;13.73;;
46288;SDS011;63105;46.158;14.604;2023-01-16T15:00:17;18.38;;;12.80;;
46288;SDS011;63105;46.158;14.604;2023-01-16T15:03:07;22.38;;;14.32;;
46288;SDS011;63105;46.158;14.604;2023-01-16T15:08:13;20.80;;;15.17;;
46288;SDS011;63105;46.158;14.604;2023-01-16T15:10:39;20.05;;;14.60;;
46288;SDS011;63105;46.158;14.604;2023-01-16T15:13:14;20.33;;;15.45;;
46288;SDS011;63105;46.158;14.604;2023-01-16T15:15:42;22.33;;;15.57;;
46288;SDS011;63105;46.158;14.604;2023-01-16T15:18:11;19.00;;;13.45;;
46288;SDS011;63105;46.158;14.604;2023-01-16T15:20:56;24.65;;;16.58;;
46288;SDS011;63105;46.158;14.604;2023-01-16T15:23:41;45.20;;;29.55;;
46288;SDS011;63105;46.158;14.604;2023-01-16T15:26:09;25.60;;;16.98;;
46288;SDS011;63105;46.158;14.604;2023-01-16T15:31:06;23.20;;;16.55;;
46288;SDS011;63105;46.158;14.604;2023-01-16T15:33:32;25.35;;;16.88;;
46288;SDS011;63105;46.158;14.604;2023-01-16T15:36:20;42.15;;;26.58;;
46288;SDS011;63105;46.158;14.604;2023-01-16T15:38:53;36.35;;;21.85;;
46288;SDS011;63105;46.158;14.604;2023-01-16T15:41:20;32.00;;;20.17;;
46288;SDS011;63105;46.158;14.604;2023-01-16T15:44:09;41.97;;;25.52;;
46288;SDS011;63105;46.158;14.604;2023-01-16T15:46:56;41.08;;;25.83;;
46288;SDS011;63105;46.158;14.604;2023-01-16T15:49:34;28.50;;;18.25;;
46288;SDS011;63105;46.158;14.604;2023-01-16T15:52:04;26.20;;;18.30;;
46288;SDS011;63105;46.158;14.604;2023-01-16T15:54:29;27.77;;;18.90;;
46288;SDS011;63105;46.158;14.604;2023-01-16T15:56:55;29.67;;;20.30;;
46288;SDS011;63105;46.158;14.604;2023-01-16T16:01:46;28.63;;;18.83;;
46288;SDS011;63105;46.158;14.604;2023-01-16T16:04:11;30.98;;;19.30;;
46288;SDS011;63105;46.158;14.604;2023-01-16T16:06:36;30.15;;;19.05;;
46288;SDS011;63105;46.158;14.604;2023-01-16T16:09:03;26.95;;;17.92;;
46288;SDS011;63105;46.158;14.604;2023-01-16T16:11:30;28.02;;;18.88;;
46288;SDS011;63105;46.158;14.604;2023-01-16T16:14:22;28.77;;;18.80;;
46288;SDS011;63105;46.158;14.604;2023-01-16T16:17:29;28.20;;;19.98;;
46288;SDS011;63105;46.158;14.604;2023-01-16T16:25:44;32.60;;;21.20;;
46288;SDS011;63105;46.158;14.604;2023-01-16T16:33:43;36.65;;;23.10;;
46288;SDS011;63105;46.158;14.604;2023-01-16T16:36:13;37.95;;;25.05;;
46288;SDS011;63105;46.158;14.604;2023-01-16T16:43:42;41.05;;;25.65;;
46288;SDS011;63105;46.158;14.604;2023-01-16T16:48:47;42.85;;;26.83;;
46288;SDS011;63105;46.158;14.604;2023-01-16T16:51:20;42.70;;;27.40;;
46288;SDS011;63105;46.158;14.604;2023-01-16T16:53:46;51.33;;;30.23;;
46288;SDS011;63105;46.158;14.604;2023-01-16T16:56:12;46.22;;;28.45;;
46288;SDS011;63105;46.158;14.604;2023-01-16T16:58:43;73.38;;;39.38;;